Terminal Aerodrome Forecast
Issued by NWS Paducah, KY

Home | Current Version | Previous Version | Text Only | Print | Product List | Glossary On
Versions: 1 2 3 4 5 6 7 8 9 10 11 12 13 14 15
000
FTUS43 KPAH 301100
TAFPAH
TAF
KPAH 301126Z 3012/3112 18003KT P6SM SKC
      TEMPO 3012/3013 4SM BR BCFG
     FM301600 18004KT P6SM BKN100
     FM310500 02004KT P6SM BKN050=

USA.gov is the U.S. government's official web portal to all federal, state and local government web resources and services.